ケアンズ の空港の天気 - METARとTAF

ケアンズ国際空港 ( YBCS / CNS ) - オーストラリア クイーンズランド州ケアンズ
飛行場実況気象(Metar)
観測時間05/30 02:30 AEST (05/29 16:30 UTC)
風向・風速南東 4m/s
視程10km以上
天気現象
なし
気温17℃
湿度77%
気圧1017hPa
METARYBCS 291630Z AUTO 13008KT 9999 // NCD 17/13 Q1017 NOSIG
過去の天気等 Google飛行場航空写真 Wunderground天気予報

過去48時間のMETAR

飛行場予報(TAF)
発表時間: 5/29 21:03 AEST (5/29 11:03 UTC)
予報対象時間: 29日22時 AEST ~ 30日22時 AEST
風向・風速南 4m/s
視程10km以上
少しの雲 雲底高度 760m
30日10時 AEST から
風向・風速南南東 7m/s
視程10km以上
少しの雲 雲底高度 910m
30日20時 AEST から
風向・風速南 3m/s
視程10km以上
全天の4割程度の雲 雲底高度 610m
TAF YBCS 291103Z 2912/3012 17007KT 9999 FEW025
FM300000 15013KT 9999 FEW030
FM301000 17006KT 9999 SCT020